Pauls Valley, OK (73075)

8:40 PM CDT on July 30, 2016 (GMT -0500)
Pauls Valley Municipal | | Change Station
Active Advisory: Areal Flood Advisory

Elev 968 ft 34.71 °N, 97.22 °W | Updated 5 minutes ago

Clear
Clear
86 °F
Feels Like 90 °F
N
6
Wind Variable Wind from SSE

Today
High -- | Low -- °F
--% Chance of Precip.
Yesterday
High -- | Low -- °F
Precip. -- in
Pressure 29.89 in
Visibility 10.0 miles
Clouds Clear
Heat Index 90 °F
Dew Point 70 °F
Humidity 58%
Rainfall 0.02 in
Snow Depth Not available.
6:37 AM 8:32 PM
Waning Crescent, 9% visible
METAR KPVJ 310135Z AUTO 15005KT 10SM CLR 30/21 A2989 RMK AO2 LTG DSNT N AND E T03000209
Pressure 29.89 in
Visibility 10.0 miles
Clouds Clear
Heat Index 90 °F
Dew Point 70 °F
Humidity 58%
Rainfall 0.02 in
Snow Depth Not available.
6:37 AM 8:32 PM
Waning Crescent, 9% visible
METAR KPVJ 310135Z AUTO 15005KT 10SM CLR 30/21 A2989 RMK AO2 LTG DSNT N AND E T03000209

10-Day Weather Forecast

Almanac

Astronomy

Jul. 30, 2016 Rise Set
Actual Time
Civil Twilight
Nautical Twilight
Astronomical Twilight
Moon
Length of Visible Light
Length of Day
Tomorrow will be .
, % of the Moon is Illuminated

Today's Extremes

State Highs State Lows

Community

WunderPhotos

Upload Photos

1,928,699 photos uploaded!

WunderBlog® & News

Nearby

Air Quality

  Air Quality AQ Index Pollutant
Not available.

Snow Depth

Station Depth Elevation

Earthquake Activity

City Distance Mag. Time & Date
Minimum magnitude displayed is 2.5.

Coastal Water Temperatures

Place Temperature

Stations

Nearby Weather Stations

Station Location Temp. Windchill Dew Point Humidity Wind Precip. Elev Updated Type
                   

Watches & Warnings

Areal Flood Advisory
Issued: 7:21 PM CDT Jul. 30, 2016 – National Weather Service

The National Weather Service in Norman has issued a

* Flood Advisory for...
northeastern Murray County in southern Oklahoma...
south central Garvin County in southern Oklahoma...

* until 915 PM CDT

* at 719 PM CDT... Doppler radar indicated heavy rain due to
thunderstorms. This will cause minor flooding in the advisory area.
Up to two inches of rain have already fallen.

* Some locations that will experience flooding include...
Sulphur and Wynnewood.

Additional rainfall of one to one and a half inches is expected over
the area. This additional rain will result in minor flooding.

Precautionary/preparedness actions...

Excessive runoff from heavy rainfall will cause flooding of small
creeks and streams... urban areas... highways... streets and
underpasses as well as other drainage areas and low lying spots.
Turn around... don't drown.


Lat... Lon 3459 9690 3447 9695 3455 9724 3464 9719


Kurtz